Time;durP1;ratioP1;P1;durP2;ratioP2;P2;SDS_P1;SDS_P2;PMS_P1;PMS_P2;Temp;Humidity;BMP_temperature;BMP_pressure;BME280_temperature;BME280_humidity;BME280_pressure;Samples;Min_cycle;Max_cycle;Signal;HPM_P1;HPM_P2
2022/02/25 00:01:00;;;;;;;;;;;21.90;32.90;;;;;;473695;251;1314;-40
2022/02/25 00:03:02;;;;;;;;;;;21.90;32.80;;;;;;476004;249;2185;-40
2022/02/25 00:05:03;;;;;;;;;;;21.90;32.80;;;;;;473573;252;1044;-40
2022/02/25 00:07:04;;;;;;;;;;;21.90;32.80;;;;;;473919;251;1601;-40
2022/02/25 00:09:07;;;;;;;;;;;21.90;32.80;;;;;;476491;249;1062;-40
2022/02/25 00:11:07;;;;;;;;;;;21.90;32.90;;;;;;473186;252;2420;-40
2022/02/25 00:13:08;;;;;;;;;;;21.90;32.90;;;;;;473671;251;1183;-40
2022/02/25 00:15:10;;;;;;;;;;;21.90;32.90;;;;;;476458;249;1056;-40
2022/02/25 00:17:11;;;;;;;;;;;21.90;32.90;;;;;;473202;252;1178;-40
2022/02/25 00:19:12;;;;;;;;;;;21.90;32.90;;;;;;473794;251;1064;-40
2022/02/25 00:21:14;;;;;;;;;;;21.90;32.80;;;;;;476434;249;1204;-40
2022/02/25 00:23:15;;;;;;;;;;;21.90;32.80;;;;;;473298;252;2206;-40
2022/02/25 00:25:16;;;;;;;;;;;21.90;32.90;;;;;;473963;251;1027;-40
2022/02/25 00:27:18;;;;;;;;;;;21.90;32.90;;;;;;476029;249;1321;-40
2022/02/25 00:29:19;;;;;;;;;;;21.90;32.90;;;;;;473795;252;1069;-40
2022/02/25 00:31:20;;;;;;;;;;;21.90;32.90;;;;;;473978;251;1348;-40
2022/02/25 00:33:22;;;;;;;;;;;21.90;32.90;;;;;;476053;249;1447;-40
2022/02/25 00:35:23;;;;;;;;;;;21.90;32.90;;;;;;473313;252;1025;-40
2022/02/25 00:37:24;;;;;;;;;;;21.90;32.90;;;;;;473674;251;1132;-40
2022/02/25 00:39:25;;;;;;;;;;;21.90;32.90;;;;;;476464;249;1006;-40
2022/02/25 00:41:27;;;;;;;;;;;21.90;32.90;;;;;;473625;252;1334;-40
2022/02/25 00:43:28;;;;;;;;;;;21.90;32.90;;;;;;473953;251;2135;-40
2022/02/25 00:45:29;;;;;;;;;;;21.90;32.80;;;;;;476475;249;1037;-40
2022/02/25 00:47:31;;;;;;;;;;;21.90;32.80;;;;;;473564;252;1181;-40
2022/02/25 00:49:32;;;;;;;;;;;21.90;32.80;;;;;;474033;251;1087;-40
2022/02/25 00:51:33;;;;;;;;;;;21.90;32.80;;;;;;476415;245;1169;-40
2022/02/25 00:53:35;;;;;;;;;;;21.90;32.80;;;;;;473777;252;1055;-40
2022/02/25 00:55:36;;;;;;;;;;;21.90;32.80;;;;;;474173;251;1071;-40
2022/02/25 00:57:37;;;;;;;;;;;21.90;32.80;;;;;;476024;249;1275;-40
2022/02/25 00:59:39;;;;;;;;;;;21.90;32.80;;;;;;473332;252;1203;-40
2022/02/25 01:01:40;;;;;;;;;;;21.90;32.90;;;;;;474157;251;1400;-40
2022/02/25 01:03:41;;;;;;;;;;;21.90;32.90;;;;;;476438;249;2141;-40
2022/02/25 01:05:43;;;;;;;;;;;21.90;32.80;;;;;;473341;252;1050;-40
2022/02/25 01:07:46;;;;;;;;;;;21.90;32.90;;;;;;473904;251;1392;-40
2022/02/25 01:09:46;;;;;;;;;;;21.90;32.90;;;;;;476486;249;2193;-40
2022/02/25 01:11:47;;;;;;;;;;;21.90;32.90;;;;;;473265;252;1077;-40
2022/02/25 01:13:49;;;;;;;;;;;21.90;32.90;;;;;;473974;251;1336;-40
2022/02/25 01:15:50;;;;;;;;;;;21.90;32.90;;;;;;476464;249;1139;-40
2022/02/25 01:17:51;;;;;;;;;;;21.90;32.90;;;;;;473502;252;1242;-40
2022/02/25 01:19:53;;;;;;;;;;;21.90;32.90;;;;;;473788;251;1075;-40
2022/02/25 01:21:54;;;;;;;;;;;21.90;32.90;;;;;;476429;249;1214;-39
2022/02/25 01:23:55;;;;;;;;;;;21.90;32.90;;;;;;473785;252;2125;-40
2022/02/25 01:25:57;;;;;;;;;;;21.90;32.90;;;;;;474131;251;1151;-40
2022/02/25 01:27:58;;;;;;;;;;;21.90;32.80;;;;;;476406;249;1172;-40
2022/02/25 01:29:59;;;;;;;;;;;21.90;32.80;;;;;;473350;252;1263;-40
2022/02/25 01:32:00;;;;;;;;;;;21.90;32.90;;;;;;473666;251;1328;-40
2022/02/25 01:34:02;;;;;;;;;;;21.90;32.90;;;;;;476500;249;1299;-40
2022/02/25 01:36:03;;;;;;;;;;;21.90;32.80;;;;;;473669;252;1424;-40
2022/02/25 01:38:04;;;;;;;;;;;21.90;32.90;;;;;;474066;251;1400;-40
2022/02/25 01:40:06;;;;;;;;;;;21.90;32.80;;;;;;476129;249;1153;-40
2022/02/25 01:42:07;;;;;;;;;;;21.90;32.80;;;;;;473233;252;1154;-40
2022/02/25 01:44:08;;;;;;;;;;;21.90;32.80;;;;;;474010;251;2145;-40
2022/02/25 01:46:10;;;;;;;;;;;21.90;32.90;;;;;;476324;245;1456;-40
2022/02/25 01:48:11;;;;;;;;;;;21.90;32.80;;;;;;473345;252;1174;-40
2022/02/25 01:50:12;;;;;;;;;;;21.90;32.90;;;;;;473690;251;1134;-40
2022/02/25 01:52:14;;;;;;;;;;;21.90;32.80;;;;;;476054;249;1558;-40
2022/02/25 01:54:15;;;;;;;;;;;21.90;32.80;;;;;;473319;252;1065;-40
2022/02/25 01:56:16;;;;;;;;;;;22.00;32.80;;;;;;473869;251;1203;-40
2022/02/25 01:58:18;;;;;;;;;;;22.00;32.80;;;;;;476015;249;1187;-40
2022/02/25 02:00:20;;;;;;;;;;;22.00;32.80;;;;;;473282;252;1159;-40
2022/02/25 02:02:20;;;;;;;;;;;22.00;32.80;;;;;;473667;251;2300;-39
2022/02/25 02:04:22;;;;;;;;;;;21.90;32.80;;;;;;476490;249;2187;-40
2022/02/25 02:06:23;;;;;;;;;;;22.00;32.90;;;;;;473287;252;1227;-40
2022/02/25 02:08:25;;;;;;;;;;;22.00;32.80;;;;;;474203;251;968;-40
2022/02/25 02:10:26;;;;;;;;;;;22.00;32.80;;;;;;476426;249;1330;-40
2022/02/25 02:12:27;;;;;;;;;;;22.00;32.90;;;;;;473547;252;1227;-40
2022/02/25 02:14:29;;;;;;;;;;;22.00;32.80;;;;;;474036;251;1278;-40
2022/02/25 02:16:30;;;;;;;;;;;21.90;32.90;;;;;;476203;249;1201;-40
2022/02/25 02:18:31;;;;;;;;;;;21.90;32.90;;;;;;473374;252;1082;-40
2022/02/25 02:20:33;;;;;;;;;;;21.90;33.00;;;;;;473996;251;1468;-40
2022/02/25 02:22:34;;;;;;;;;;;21.90;32.90;;;;;;476177;249;1214;-40
2022/02/25 02:24:35;;;;;;;;;;;21.90;32.90;;;;;;473330;252;2206;-40
2022/02/25 02:26:37;;;;;;;;;;;21.90;32.90;;;;;;473948;251;1360;-40
2022/02/25 02:28:38;;;;;;;;;;;21.90;33.00;;;;;;476463;250;2180;-40
2022/02/25 02:30:39;;;;;;;;;;;21.90;33.00;;;;;;473334;252;1244;-40
2022/02/25 02:32:40;;;;;;;;;;;21.90;33.00;;;;;;474057;251;1261;-40
2022/02/25 02:34:42;;;;;;;;;;;21.90;33.00;;;;;;476076;249;988;-40
2022/02/25 02:36:43;;;;;;;;;;;21.90;33.00;;;;;;473441;252;1351;-40
2022/02/25 02:38:45;;;;;;;;;;;21.90;33.00;;;;;;474153;251;1149;-40
2022/02/25 02:40:46;;;;;;;;;;;21.80;33.00;;;;;;476439;249;1193;-40
2022/02/25 02:42:47;;;;;;;;;;;21.90;33.00;;;;;;473504;252;1258;-40
2022/02/25 02:44:49;;;;;;;;;;;21.90;32.90;;;;;;474031;251;2130;-40
2022/02/25 02:46:50;;;;;;;;;;;21.90;32.90;;;;;;475999;249;1206;-40
2022/02/25 02:48:51;;;;;;;;;;;21.90;32.90;;;;;;473702;252;1160;-40
2022/02/25 02:50:53;;;;;;;;;;;21.90;32.90;;;;;;474169;251;1361;-40
2022/02/25 02:52:54;;;;;;;;;;;22.00;32.90;;;;;;476469;249;1181;-40
2022/02/25 02:54:55;;;;;;;;;;;21.90;32.90;;;;;;473748;252;1052;-40
2022/02/25 02:56:57;;;;;;;;;;;22.00;32.90;;;;;;473868;251;1457;-40
2022/02/25 02:58:58;;;;;;;;;;;22.00;32.90;;;;;;476461;249;1079;-40
2022/02/25 03:00:59;;;;;;;;;;;22.00;32.90;;;;;;473331;252;1364;-40
2022/02/25 03:03:01;;;;;;;;;;;22.00;32.90;;;;;;473853;251;2193;-40
2022/02/25 03:05:02;;;;;;;;;;;21.90;32.90;;;;;;476524;249;1088;-40
2022/02/25 03:07:03;;;;;;;;;;;21.90;32.90;;;;;;473696;252;1397;-40
2022/02/25 03:09:05;;;;;;;;;;;21.90;33.00;;;;;;474048;251;1088;-40
2022/02/25 03:11:06;;;;;;;;;;;21.90;33.10;;;;;;475991;249;1092;-40
2022/02/25 03:13:07;;;;;;;;;;;21.90;33.00;;;;;;473451;252;1131;-40
2022/02/25 03:15:09;;;;;;;;;;;21.90;33.00;;;;;;473731;251;1185;-40
2022/02/25 03:17:14;;;;;;;;;;;21.90;33.00;;;;;;476379;249;1427;-40
2022/02/25 03:19:12;;;;;;;;;;;21.90;33.00;;;;;;473636;252;2086;-40
2022/02/25 03:21:14;;;;;;;;;;;21.90;33.00;;;;;;474030;251;1281;-40
2022/02/25 03:23:15;;;;;;;;;;;21.90;33.00;;;;;;476332;249;2349;-40
2022/02/25 03:25:16;;;;;;;;;;;21.90;33.00;;;;;;473722;252;1117;-40
2022/02/25 03:27:18;;;;;;;;;;;21.90;33.00;;;;;;474155;251;1207;-40
2022/02/25 03:29:19;;;;;;;;;;;21.90;32.90;;;;;;476470;249;1033;-40
2022/02/25 03:31:20;;;;;;;;;;;21.90;32.90;;;;;;473288;252;1329;-40
2022/02/25 03:33:21;;;;;;;;;;;21.90;33.00;;;;;;473633;252;1371;-40
2022/02/25 03:35:23;;;;;;;;;;;21.90;33.00;;;;;;476407;249;1453;-40
2022/02/25 03:37:27;;;;;;;;;;;21.90;33.00;;;;;;473646;252;1145;-40
2022/02/25 03:39:26;;;;;;;;;;;21.90;33.00;;;;;;473698;251;1618;-40
2022/02/25 03:41:27;;;;;;;;;;;21.90;33.00;;;;;;476099;249;1414;-40
2022/02/25 03:43:29;;;;;;;;;;;21.90;33.00;;;;;;473754;252;2122;-40
2022/02/25 03:45:30;;;;;;;;;;;21.90;33.00;;;;;;473767;251;1383;-40
2022/02/25 03:47:31;;;;;;;;;;;21.90;33.00;;;;;;475913;249;1227;-40
2022/02/25 03:49:33;;;;;;;;;;;21.90;33.00;;;;;;473331;252;1047;-40
2022/02/25 03:51:34;;;;;;;;;;;21.90;33.00;;;;;;473678;251;1537;-40
2022/02/25 03:53:35;;;;;;;;;;;22.00;33.00;;;;;;476444;249;1235;-40
2022/02/25 03:55:37;;;;;;;;;;;22.00;33.00;;;;;;473711;252;1240;-40
2022/02/25 03:57:38;;;;;;;;;;;21.90;32.90;;;;;;473735;251;1364;-40
2022/02/25 03:59:39;;;;;;;;;;;21.90;32.90;;;;;;476522;249;1075;-40
2022/02/25 04:01:41;;;;;;;;;;;22.00;33.00;;;;;;473306;252;1515;-40
2022/02/25 04:03:42;;;;;;;;;;;21.90;33.00;;;;;;474145;251;2126;-40
2022/02/25 04:05:43;;;;;;;;;;;21.90;33.00;;;;;;475998;249;1175;-40
2022/02/25 04:07:45;;;;;;;;;;;22.00;33.00;;;;;;473310;252;1155;-40
2022/02/25 04:09:46;;;;;;;;;;;22.00;32.90;;;;;;473776;251;2192;-40
2022/02/25 04:11:47;;;;;;;;;;;22.00;32.90;;;;;;476399;249;1342;-40
2022/02/25 04:13:48;;;;;;;;;;;22.00;32.90;;;;;;473331;252;1087;-40
2022/02/25 04:15:50;;;;;;;;;;;21.90;32.90;;;;;;473950;251;1277;-40
2022/02/25 04:17:51;;;;;;;;;;;21.90;33.00;;;;;;476385;249;1240;-40
2022/02/25 04:19:52;;;;;;;;;;;21.90;32.90;;;;;;473743;252;1211;-40
2022/02/25 04:21:54;;;;;;;;;;;22.00;33.00;;;;;;473924;251;1198;-40
2022/02/25 04:23:55;;;;;;;;;;;21.90;33.00;;;;;;476075;249;2204;-40
2022/02/25 04:25:56;;;;;;;;;;;21.90;33.00;;;;;;473754;252;1206;-39
2022/02/25 04:27:58;;;;;;;;;;;21.90;33.00;;;;;;473969;251;1263;-40
2022/02/25 04:29:59;;;;;;;;;;;21.90;33.10;;;;;;476527;249;1098;-40
2022/02/25 04:32:00;;;;;;;;;;;21.80;33.10;;;;;;473236;252;1223;-40
2022/02/25 04:34:02;;;;;;;;;;;21.90;33.10;;;;;;474157;251;1104;-40
2022/02/25 04:36:04;;;;;;;;;;;21.90;33.10;;;;;;476467;249;1151;-40
2022/02/25 04:38:05;;;;;;;;;;;21.90;33.10;;;;;;473290;252;2248;-40
2022/02/25 04:40:06;;;;;;;;;;;21.90;33.10;;;;;;474012;251;1252;-40
2022/02/25 04:42:07;;;;;;;;;;;21.90;33.00;;;;;;476446;249;1388;-40
2022/02/25 04:44:09;;;;;;;;;;;21.90;33.10;;;;;;473791;252;2133;-40
2022/02/25 04:46:10;;;;;;;;;;;21.80;33.10;;;;;;474036;251;1192;-40
2022/02/25 04:48:12;;;;;;;;;;;21.90;33.10;;;;;;476058;249;1239;-40
2022/02/25 04:50:13;;;;;;;;;;;21.90;33.10;;;;;;473376;252;2137;-40
2022/02/25 04:52:14;;;;;;;;;;;21.90;33.10;;;;;;473739;251;1265;-40
2022/02/25 04:54:15;;;;;;;;;;;21.90;33.10;;;;;;476529;249;1079;-40
2022/02/25 04:56:16;;;;;;;;;;;21.90;33.10;;;;;;473262;252;1184;-40
2022/02/25 04:58:18;;;;;;;;;;;21.80;33.10;;;;;;473768;251;1225;-40
2022/02/25 05:00:19;;;;;;;;;;;21.80;33.10;;;;;;476040;249;1057;-40
2022/02/25 05:02:20;;;;;;;;;;;21.90;33.00;;;;;;473146;252;1711;-40
2022/02/25 05:04:22;;;;;;;;;;;21.80;33.10;;;;;;474055;251;2196;-40
2022/02/25 05:06:23;;;;;;;;;;;21.80;33.10;;;;;;476201;249;1255;-40
2022/02/25 05:08:24;;;;;;;;;;;21.90;33.10;;;;;;473356;252;1365;-39
2022/02/25 05:10:26;;;;;;;;;;;21.80;33.10;;;;;;473788;251;1105;-40
2022/02/25 05:12:27;;;;;;;;;;;21.90;33.10;;;;;;476074;249;1237;-40
2022/02/25 05:21:26;;;;;;;;;;;21.80;33.10;;;;;;473224;251;1192;-40
2022/02/25 05:23:27;;;;;;;;;;;21.80;33.10;;;;;;474135;251;1088;-40
2022/02/25 05:25:29;;;;;;;;;;;21.90;33.10;;;;;;476332;249;2191;-40
2022/02/25 05:27:30;;;;;;;;;;;21.90;33.10;;;;;;473466;252;1163;-40
2022/02/25 05:29:31;;;;;;;;;;;21.90;33.10;;;;;;473588;251;1196;-40
2022/02/25 05:31:33;;;;;;;;;;;21.90;33.00;;;;;;476068;249;1399;-40
2022/02/25 05:33:35;;;;;;;;;;;22.00;33.00;;;;;;473231;252;1273;-40
2022/02/25 05:35:36;;;;;;;;;;;21.90;33.00;;;;;;474043;251;1092;-40
2022/02/25 05:37:37;;;;;;;;;;;21.80;33.10;;;;;;476104;249;1121;-40
2022/02/25 05:39:38;;;;;;;;;;;21.90;33.00;;;;;;473484;252;1092;-40
2022/02/25 05:41:40;;;;;;;;;;;21.90;33.10;;;;;;473858;251;1321;-40
2022/02/25 05:43:41;;;;;;;;;;;21.90;33.00;;;;;;476055;249;1072;-40
2022/02/25 05:45:42;;;;;;;;;;;21.90;33.10;;;;;;473134;252;2197;-40
2022/02/25 05:47:44;;;;;;;;;;;21.90;33.00;;;;;;473616;251;1230;-40
2022/02/25 05:49:45;;;;;;;;;;;21.90;33.00;;;;;;476288;249;1090;-40
2022/02/25 05:51:47;;;;;;;;;;;21.90;33.00;;;;;;472992;252;1353;-40
2022/02/25 05:53:48;;;;;;;;;;;21.90;33.00;;;;;;473750;251;1078;-40
2022/02/25 05:55:49;;;;;;;;;;;21.90;33.00;;;;;;475867;249;1383;-40
2022/02/25 05:57:51;;;;;;;;;;;21.90;33.00;;;;;;473142;252;1187;-40
2022/02/25 05:59:52;;;;;;;;;;;21.90;33.00;;;;;;473635;251;1127;-40
2022/02/25 06:01:53;;;;;;;;;;;21.90;33.00;;;;;;475855;249;1187;-40
2022/02/25 06:03:55;;;;;;;;;;;21.90;33.00;;;;;;473345;252;1074;-40
2022/02/25 06:05:56;;;;;;;;;;;21.90;33.00;;;;;;473681;251;2118;-40
2022/02/25 06:07:59;;;;;;;;;;;21.90;33.00;;;;;;475782;249;1584;-40
2022/02/25 06:09:59;;;;;;;;;;;21.80;33.00;;;;;;473030;252;2290;-40
2022/02/25 06:12:00;;;;;;;;;;;21.90;33.10;;;;;;473450;251;1338;-40
2022/02/25 06:14:02;;;;;;;;;;;21.90;33.10;;;;;;475763;249;1200;-40
2022/02/25 06:16:03;;;;;;;;;;;21.90;33.10;;;;;;473375;252;1289;-40
2022/02/25 06:18:04;;;;;;;;;;;21.90;33.10;;;;;;473401;251;1207;-40
2022/02/25 06:20:06;;;;;;;;;;;21.80;33.00;;;;;;475962;249;1070;-40
2022/02/25 06:22:07;;;;;;;;;;;21.90;33.00;;;;;;473171;252;1356;-40
2022/02/25 06:24:08;;;;;;;;;;;21.90;33.00;;;;;;473518;251;1282;-40
2022/02/25 06:26:10;;;;;;;;;;;21.90;33.00;;;;;;475818;249;2153;-40
2022/02/25 06:28:11;;;;;;;;;;;21.90;33.00;;;;;;472981;252;1256;-40
2022/02/25 06:30:12;;;;;;;;;;;21.90;33.00;;;;;;473495;251;1082;-40
2022/02/25 06:32:14;;;;;;;;;;;21.90;33.00;;;;;;475736;249;1255;-40
2022/02/25 06:34:15;;;;;;;;;;;21.90;32.90;;;;;;473001;252;1094;-40
2022/02/25 06:36:16;;;;;;;;;;;21.90;32.90;;;;;;473681;251;1314;-40
2022/02/25 06:38:17;;;;;;;;;;;21.90;33.00;;;;;;475748;249;1081;-40
2022/02/25 06:40:19;;;;;;;;;;;21.90;33.00;;;;;;473138;252;1133;-40
2022/02/25 06:42:20;;;;;;;;;;;21.90;33.00;;;;;;473389;251;1296;-40
2022/02/25 06:44:21;;;;;;;;;;;21.90;33.00;;;;;;476116;249;2129;-40
2022/02/25 06:46:23;;;;;;;;;;;21.90;33.00;;;;;;473097;252;1237;-40
2022/02/25 06:48:24;;;;;;;;;;;21.90;33.00;;;;;;473459;251;1245;-40
2022/02/25 06:50:26;;;;;;;;;;;22.00;33.00;;;;;;476112;249;1453;-40
2022/02/25 06:52:27;;;;;;;;;;;22.00;32.90;;;;;;473126;252;1092;-40
2022/02/25 06:54:28;;;;;;;;;;;22.00;32.90;;;;;;473834;251;1066;-40
2022/02/25 06:56:30;;;;;;;;;;;21.90;32.90;;;;;;475750;249;1329;-40
2022/02/25 06:58:31;;;;;;;;;;;21.90;33.00;;;;;;472993;252;1077;-40
2022/02/25 07:00:32;;;;;;;;;;;21.90;33.00;;;;;;473445;251;1122;-40
2022/02/25 07:02:34;;;;;;;;;;;21.90;32.90;;;;;;475612;249;1109;-40
2022/02/25 07:04:35;;;;;;;;;;;21.90;32.90;;;;;;472876;252;2205;-40
2022/02/25 07:06:38;;;;;;;;;;;21.90;32.90;;;;;;473436;245;1445;-40
2022/02/25 07:08:39;;;;;;;;;;;21.90;32.90;;;;;;475927;249;2110;-40
2022/02/25 07:10:40;;;;;;;;;;;21.90;32.90;;;;;;473291;252;1097;-40
2022/02/25 07:12:41;;;;;;;;;;;21.90;32.90;;;;;;473272;251;1161;-40
2022/02/25 07:14:42;;;;;;;;;;;21.90;33.00;;;;;;475619;249;1118;-40
2022/02/25 07:16:44;;;;;;;;;;;21.90;33.00;;;;;;472767;252;1167;-40
2022/02/25 07:18:45;;;;;;;;;;;21.90;32.90;;;;;;473190;251;1190;-40
2022/02/25 07:20:47;;;;;;;;;;;21.90;32.90;;;;;;475607;249;1210;-40
2022/02/25 07:22:48;;;;;;;;;;;21.90;32.80;;;;;;473116;252;1153;-40
2022/02/25 07:24:49;;;;;;;;;;;21.90;32.80;;;;;;473195;251;2114;-40
2022/02/25 07:26:50;;;;;;;;;;;21.90;32.80;;;;;;475749;249;1374;-40
2022/02/25 07:28:52;;;;;;;;;;;21.80;32.80;;;;;;472812;252;1115;-40
2022/02/25 07:30:53;;;;;;;;;;;21.90;32.90;;;;;;473087;251;1106;-40
2022/02/25 07:32:54;;;;;;;;;;;21.90;32.80;;;;;;475447;249;1495;-40
2022/02/25 07:34:56;;;;;;;;;;;21.90;32.80;;;;;;472720;252;1044;-40
2022/02/25 07:36:57;;;;;;;;;;;21.90;32.70;;;;;;473200;251;1685;-40
2022/02/25 07:38:58;;;;;;;;;;;21.90;32.70;;;;;;475572;249;1177;-40
2022/02/25 07:41:00;;;;;;;;;;;21.90;32.60;;;;;;472853;252;1208;-40
2022/02/25 07:43:01;;;;;;;;;;;21.90;32.60;;;;;;473257;251;1637;-40
2022/02/25 07:45:02;;;;;;;;;;;22.00;32.60;;;;;;475259;249;2196;-40
2022/02/25 07:47:04;;;;;;;;;;;22.00;32.50;;;;;;472521;252;1436;-40
2022/02/25 07:49:05;;;;;;;;;;;22.00;32.50;;;;;;473234;251;1211;-40
2022/02/25 07:51:07;;;;;;;;;;;22.00;32.50;;;;;;475622;249;1142;-40
2022/02/25 07:53:08;;;;;;;;;;;22.00;32.40;;;;;;473102;252;1047;-40
2022/02/25 07:55:09;;;;;;;;;;;22.00;32.50;;;;;;473233;251;1071;-40
2022/02/25 07:57:10;;;;;;;;;;;22.00;32.50;;;;;;475151;249;1331;-40
2022/02/25 07:59:12;;;;;;;;;;;22.00;32.40;;;;;;472611;252;1186;-40
2022/02/25 08:01:14;;;;;;;;;;;22.00;32.40;;;;;;473009;251;1363;-40
2022/02/25 08:03:15;;;;;;;;;;;22.00;32.40;;;;;;475318;249;1192;-40
2022/02/25 08:05:16;;;;;;;;;;;22.00;32.50;;;;;;472572;252;2178;-40
2022/02/25 08:07:18;;;;;;;;;;;22.00;32.50;;;;;;473068;251;1257;-40
2022/02/25 08:09:19;;;;;;;;;;;22.00;32.50;;;;;;475601;249;1207;-40
2022/02/25 08:11:20;;;;;;;;;;;22.00;32.40;;;;;;472746;252;1254;-39
2022/02/25 08:13:22;;;;;;;;;;;22.00;32.40;;;;;;473173;251;1242;-40
2022/02/25 08:15:23;;;;;;;;;;;22.00;32.40;;;;;;475525;249;1009;-40
2022/02/25 08:17:24;;;;;;;;;;;22.00;32.40;;;;;;472624;252;1157;-40
2022/02/25 08:19:26;;;;;;;;;;;22.00;32.40;;;;;;473099;251;1658;-40
2022/02/25 08:21:27;;;;;;;;;;;22.00;32.40;;;;;;475193;249;1376;-40
2022/02/25 08:23:29;;;;;;;;;;;22.00;32.40;;;;;;472576;252;1108;-40
2022/02/25 08:25:30;;;;;;;;;;;22.00;32.40;;;;;;472978;251;2242;-40
2022/02/25 08:27:31;;;;;;;;;;;22.00;32.40;;;;;;475466;249;1203;-40
2022/02/25 08:29:33;;;;;;;;;;;22.00;32.40;;;;;;472697;252;1065;-39
2022/02/25 08:31:34;;;;;;;;;;;22.00;32.40;;;;;;473150;251;1219;-40
2022/02/25 08:33:35;;;;;;;;;;;22.00;32.40;;;;;;475312;249;1312;-40
2022/02/25 08:35:37;;;;;;;;;;;22.00;32.30;;;;;;472558;252;1225;-40
2022/02/25 08:37:38;;;;;;;;;;;22.10;32.20;;;;;;473040;251;1183;-40
2022/02/25 08:39:39;;;;;;;;;;;22.00;32.20;;;;;;475227;249;1293;-40
2022/02/25 08:41:41;;;;;;;;;;;22.00;32.30;;;;;;472512;252;1235;-40
2022/02/25 08:43:43;;;;;;;;;;;22.00;32.30;;;;;;473261;251;1109;-40
2022/02/25 08:45:45;;;;;;;;;;;22.00;32.30;;;;;;475306;249;2200;-40
2022/02/25 08:47:45;;;;;;;;;;;22.00;32.30;;;;;;473117;252;2444;-40
2022/02/25 08:49:47;;;;;;;;;;;22.00;32.20;;;;;;473000;251;1325;-40
2022/02/25 08:51:48;;;;;;;;;;;22.00;32.20;;;;;;475016;249;1491;-40
2022/02/25 08:53:49;;;;;;;;;;;22.00;32.20;;;;;;472419;252;1481;-39
2022/02/25 08:55:51;;;;;;;;;;;22.00;32.20;;;;;;473104;251;1242;-40
2022/02/25 08:57:52;;;;;;;;;;;22.00;32.10;;;;;;475671;249;1038;-40
2022/02/25 08:59:53;;;;;;;;;;;22.00;32.20;;;;;;472670;252;1095;-40
2022/02/25 09:01:55;;;;;;;;;;;22.00;32.20;;;;;;472936;251;1219;-40
2022/02/25 09:04:00;;;;;;;;;;;22.00;32.10;;;;;;475290;249;1161;-40
2022/02/25 09:05:57;;;;;;;;;;;22.10;32.10;;;;;;472057;252;2181;-40
2022/02/25 09:07:59;;;;;;;;;;;22.00;32.00;;;;;;473048;251;1102;-40
2022/02/25 09:10:00;;;;;;;;;;;22.10;32.10;;;;;;475397;249;1222;-39
2022/02/25 09:12:01;;;;;;;;;;;22.00;32.10;;;;;;472647;252;1353;-40
2022/02/25 09:14:03;;;;;;;;;;;22.00;32.10;;;;;;473054;251;1061;-40
2022/02/25 09:16:04;;;;;;;;;;;22.00;32.10;;;;;;475395;249;1309;-40
2022/02/25 09:18:10;;;;;;;;;;;22.00;32.10;;;;;;472962;252;1122;-40
2022/02/25 09:20:07;;;;;;;;;;;22.00;32.10;;;;;;472871;251;2173;-40
2022/02/25 09:22:09;;;;;;;;;;;22.00;32.10;;;;;;475392;249;1327;-40
2022/02/25 09:24:10;;;;;;;;;;;22.00;32.10;;;;;;472605;252;1246;-40
2022/02/25 09:26:11;;;;;;;;;;;22.00;32.10;;;;;;472850;251;2193;-40
2022/02/25 09:28:14;;;;;;;;;;;22.00;32.00;;;;;;475371;249;1122;-40
2022/02/25 09:30:14;;;;;;;;;;;22.00;32.10;;;;;;472650;252;2178;-40
2022/02/25 09:32:16;;;;;;;;;;;22.00;32.10;;;;;;473001;251;1275;-40
2022/02/25 09:34:17;;;;;;;;;;;22.00;32.10;;;;;;475474;249;1146;-40
2022/02/25 09:36:19;;;;;;;;;;;22.00;32.10;;;;;;472675;252;1211;-40
2022/02/25 09:38:20;;;;;;;;;;;22.00;32.00;;;;;;472984;251;1076;-40
2022/02/25 09:40:21;;;;;;;;;;;22.00;32.00;;;;;;475263;249;1327;-40
2022/02/25 09:42:23;;;;;;;;;;;22.00;32.00;;;;;;472399;252;1223;-40
2022/02/25 09:44:24;;;;;;;;;;;22.00;31.90;;;;;;472872;251;1453;-40
2022/02/25 09:46:25;;;;;;;;;;;22.00;31.90;;;;;;475113;249;2137;-40
2022/02/25 09:48:26;;;;;;;;;;;22.00;32.00;;;;;;472548;252;1238;-40
2022/02/25 09:50:28;;;;;;;;;;;22.00;32.00;;;;;;472857;251;1207;-40
2022/02/25 09:52:29;;;;;;;;;;;22.00;31.90;;;;;;475191;249;1319;-40
2022/02/25 09:54:31;;;;;;;;;;;22.00;31.90;;;;;;472376;252;1336;-40
2022/02/25 09:56:33;;;;;;;;;;;22.00;31.90;;;;;;472853;244;1144;-40
2022/02/25 09:58:33;;;;;;;;;;;22.00;31.90;;;;;;475351;249;2198;-40
2022/02/25 10:00:34;;;;;;;;;;;22.00;31.90;;;;;;472604;252;1660;-40
2022/02/25 10:02:36;;;;;;;;;;;22.00;31.80;;;;;;473272;251;1130;-40
2022/02/25 10:04:37;;;;;;;;;;;22.00;31.80;;;;;;475182;249;1291;-40
2022/02/25 10:06:38;;;;;;;;;;;22.00;31.90;;;;;;472422;252;2190;-40
2022/02/25 10:08:40;;;;;;;;;;;22.00;31.80;;;;;;473109;251;1166;-40
2022/02/25 10:10:41;;;;;;;;;;;22.00;31.90;;;;;;475291;249;1265;-40
2022/02/25 10:12:42;;;;;;;;;;;22.00;31.90;;;;;;472817;252;1127;-40
2022/02/25 10:14:44;;;;;;;;;;;22.00;31.80;;;;;;473012;251;1272;-40
2022/02/25 10:16:45;;;;;;;;;;;22.00;31.80;;;;;;475304;249;1131;-40
2022/02/25 10:18:46;;;;;;;;;;;22.00;31.80;;;;;;472530;252;1058;-40
2022/02/25 10:20:48;;;;;;;;;;;22.00;31.80;;;;;;473094;251;1310;-39
2022/02/25 10:22:49;;;;;;;;;;;22.00;31.70;;;;;;475335;249;1188;-40
2022/02/25 10:24:50;;;;;;;;;;;22.00;31.70;;;;;;472649;252;1130;-40
2022/02/25 10:26:52;;;;;;;;;;;22.00;31.70;;;;;;472965;251;2200;-39
2022/02/25 10:28:53;;;;;;;;;;;22.00;31.60;;;;;;475303;249;1226;-40
2022/02/25 10:30:54;;;;;;;;;;;22.00;31.60;;;;;;472548;252;1200;-40
2022/02/25 10:32:56;;;;;;;;;;;22.00;31.60;;;;;;473141;251;1207;-40
2022/02/25 10:34:58;;;;;;;;;;;22.00;31.60;;;;;;475232;249;1138;-40
2022/02/25 10:37:00;;;;;;;;;;;22.00;31.60;;;;;;472551;252;1322;-40
2022/02/25 10:39:00;;;;;;;;;;;22.00;31.60;;;;;;472940;251;2105;-40
2022/02/25 10:41:02;;;;;;;;;;;22.00;31.50;;;;;;475182;249;1334;-40
2022/02/25 10:43:03;;;;;;;;;;;22.00;31.50;;;;;;473366;252;832;-40
2022/02/25 10:45:07;;;;;;;;;;;22.00;31.50;;;;;;473770;251;1095;-40
2022/02/25 10:47:06;;;;;;;;;;;22.00;31.50;;;;;;475576;250;2204;-40
2022/02/25 10:49:08;;;;;;;;;;;22.00;31.40;;;;;;472698;252;1289;-40
2022/02/25 10:51:09;;;;;;;;;;;22.00;31.40;;;;;;473022;251;1790;-40
2022/02/25 10:53:10;;;;;;;;;;;22.00;31.40;;;;;;475348;249;1238;-40
2022/02/25 10:55:11;;;;;;;;;;;22.00;31.30;;;;;;472845;252;1111;-40
2022/02/25 10:57:13;;;;;;;;;;;22.00;31.30;;;;;;473021;251;1430;-40
2022/02/25 10:59:14;;;;;;;;;;;22.00;31.30;;;;;;475149;249;1226;-40
2022/02/25 11:01:16;;;;;;;;;;;22.00;31.30;;;;;;472365;252;1141;-40
2022/02/25 11:03:17;;;;;;;;;;;21.90;31.30;;;;;;473066;251;1160;-40
2022/02/25 11:05:19;;;;;;;;;;;22.00;31.30;;;;;;475484;249;1351;-40
2022/02/25 11:07:20;;;;;;;;;;;22.00;31.30;;;;;;472581;252;2131;-40
2022/02/25 11:09:24;;;;;;;;;;;22.00;31.30;;;;;;473065;251;1103;-40
2022/02/25 11:11:23;;;;;;;;;;;22.00;31.20;;;;;;475168;250;2281;-40
2022/02/25 11:13:24;;;;;;;;;;;22.00;31.20;;;;;;472602;252;1269;-40
2022/02/25 11:15:26;;;;;;;;;;;21.90;31.10;;;;;;472930;251;1081;-40
2022/02/25 11:17:27;;;;;;;;;;;22.00;31.10;;;;;;475327;249;1193;-40
2022/02/25 11:19:28;;;;;;;;;;;22.00;31.10;;;;;;472681;252;1098;-40
2022/02/25 11:21:29;;;;;;;;;;;21.90;31.10;;;;;;472999;251;1285;-40
2022/02/25 11:23:31;;;;;;;;;;;21.90;31.10;;;;;;475265;249;1132;-40
2022/02/25 11:25:32;;;;;;;;;;;21.90;31.10;;;;;;472667;252;1087;-40
2022/02/25 11:27:33;;;;;;;;;;;21.90;31.00;;;;;;473125;251;2193;-40
2022/02/25 11:29:35;;;;;;;;;;;21.90;31.00;;;;;;475519;249;1064;-40
2022/02/25 11:31:36;;;;;;;;;;;21.90;31.00;;;;;;472725;252;1197;-40
2022/02/25 11:33:37;;;;;;;;;;;21.90;31.00;;;;;;473087;251;1156;-40
2022/02/25 11:35:40;;;;;;;;;;;21.90;31.00;;;;;;475372;249;1296;-39
2022/02/25 11:37:40;;;;;;;;;;;21.90;31.00;;;;;;472644;252;2237;-40
2022/02/25 11:39:42;;;;;;;;;;;21.90;30.90;;;;;;473021;251;1173;-40
2022/02/25 11:41:43;;;;;;;;;;;21.90;30.90;;;;;;475205;249;1306;-40
2022/02/25 11:43:46;;;;;;;;;;;21.90;30.90;;;;;;472610;252;1176;-40
2022/02/25 11:45:46;;;;;;;;;;;22.00;30.90;;;;;;473065;252;2373;-40
2022/02/25 11:47:47;;;;;;;;;;;22.00;30.80;;;;;;481156;246;2125;-40
2022/02/25 11:49:49;;;;;;;;;;;21.90;30.70;;;;;;481089;246;1145;-40
2022/02/25 11:51:50;;;;;;;;;;;21.90;30.70;;;;;;481106;246;1386;-40
2022/02/25 11:53:52;;;;;;;;;;;21.90;30.70;;;;;;472544;252;1118;-40
2022/02/25 11:55:53;;;;;;;;;;;21.90;30.70;;;;;;481161;247;1219;-40
2022/02/25 11:57:55;;;;;;;;;;;21.90;30.70;;;;;;481452;246;1129;-40
2022/02/25 11:59:56;;;;;;;;;;;21.90;30.70;;;;;;481307;246;1127;-40
2022/02/25 12:01:57;;;;;;;;;;;21.90;30.70;;;;;;473066;251;2195;-40
2022/02/25 12:03:58;;;;;;;;;;;21.90;30.70;;;;;;481262;246;1102;-39